Time;durP1;ratioP1;P1;durP2;ratioP2;P2;SDS_P1;SDS_P2;PMS_P1;PMS_P2;Temp;Humidity;BMP_temperature;BMP_pressure;BME280_temperature;BME280_humidity;BME280_pressure;Samples;Min_cycle;Max_cycle;Signal;HPM_P1;HPM_P2
2022/11/14 00:02:25;;;;;;;;;;;;;;;4.54;81.49;98078.59;5108207;28;20028;-55
2022/11/14 00:05:11;;;;;;;;;;;;;;;4.42;82.16;98078.84;5105474;28;19934;-58
2022/11/14 00:08:24;;;;;;;;;;;;;;;4.50;82.04;98084.75;5105951;28;19934;-58
2022/11/14 00:11:12;;;;;;;;;;;;;;;4.50;81.69;98082.88;5111683;27;20096;-57
2022/11/14 00:13:59;;;;;;;;;;;;;;;4.49;82.06;98092.03;5111000;28;19985;-57
2022/11/14 00:16:46;;;;;;;;;;;;;;;4.52;81.37;98080.72;5103166;28;19931;-58
2022/11/14 00:19:34;;;;;;;;;;;;;;;4.52;81.39;98086.09;5104185;28;19997;-57
2022/11/14 00:22:21;;;;;;;;;;;;;;;4.44;81.64;98086.63;5105452;28;19931;-57
2022/11/14 00:25:13;;;;;;;;;;;;;;;4.43;81.62;98076.97;5110837;28;19931;-58
2022/11/14 00:28:01;;;;;;;;;;;;;;;4.46;81.35;98084.47;5104838;27;19930;-58
2022/11/14 00:30:48;;;;;;;;;;;;;;;4.44;81.42;98083.94;5118047;27;20422;-57
2022/11/14 00:33:35;;;;;;;;;;;;;;;4.41;81.40;98079.91;5115705;27;19930;-57
2022/11/14 00:36:22;;;;;;;;;;;;;;;4.35;81.93;98066.72;5094889;28;19930;-57
2022/11/14 00:39:10;;;;;;;;;;;;;;;4.27;82.35;98068.06;5109275;28;20000;-57
2022/11/14 00:41:57;;;;;;;;;;;;;;;4.32;81.77;98062.69;5111294;27;19935;-58
2022/11/14 00:44:45;;;;;;;;;;;;;;;4.37;81.81;98048.44;5111968;28;20756;-58
2022/11/14 00:47:32;;;;;;;;;;;;;;;4.32;81.90;98056.50;5113889;27;19930;-57
2022/11/14 00:50:19;;;;;;;;;;;;;;;4.32;81.81;98051.13;5112415;28;19931;-57
2022/11/14 00:53:05;;;;;;;;;;;;;;;4.33;81.77;98044.66;5117178;27;19930;-56
2022/11/14 00:55:53;;;;;;;;;;;;;;;4.36;81.63;98047.59;5094382;28;19947;-58
2022/11/14 01:05:27;;;;;;;;;;;;;;;4.27;82.25;98045.75;5072442;28;19931;-58
2022/11/14 01:08:14;;;;;;;;;;;;;;;4.29;81.76;98049.75;5090220;28;19931;-57
2022/11/14 01:11:01;;;;;;;;;;;;;;;4.32;81.74;98038.47;5094155;28;19986;-57
2022/11/14 01:13:48;;;;;;;;;;;;;;;4.32;81.53;98045.75;5093810;28;20404;-58
2022/11/14 01:16:35;;;;;;;;;;;;;;;4.33;81.45;98039.28;5090722;28;20057;-58
2022/11/14 01:19:23;;;;;;;;;;;;;;;4.22;82.05;98037.66;5083916;28;20171;-57
2022/11/14 01:22:10;;;;;;;;;;;;;;;4.26;82.23;98033.34;5091956;28;20012;-58
2022/11/14 01:25:02;;;;;;;;;;;;;;;4.31;81.72;98036.03;5095131;28;20325;-57
2022/11/14 01:27:49;;;;;;;;;;;;;;;4.29;81.52;98030.94;5086987;28;19931;-57
2022/11/14 01:30:36;;;;;;;;;;;;;;;4.32;81.69;98027.72;5088915;28;19932;-58
2022/11/14 01:33:30;;;;;;;;;;;;;;;4.29;81.79;98032.81;5089735;28;19931;-58
2022/11/14 01:36:19;;;;;;;;;;;;;;;4.30;81.82;98026.38;5093903;28;19923;-57
2022/11/14 01:39:06;;;;;;;;;;;;;;;4.27;82.09;98018.84;5082973;28;20303;-59
2022/11/14 01:41:52;;;;;;;;;;;;;;;4.29;81.80;98022.06;5097408;28;20357;-58
2022/11/14 01:44:43;;;;;;;;;;;;;;;4.26;81.99;98017.22;5091816;28;19935;-57
2022/11/14 01:47:30;;;;;;;;;;;;;;;4.29;81.67;98019.38;5087934;28;19931;-58
2022/11/14 01:50:17;;;;;;;;;;;;;;;4.28;81.57;98015.88;5091310;28;20074;-58
2022/11/14 01:53:05;;;;;;;;;;;;;;;4.29;81.38;98016.69;5097838;28;20010;-59
2022/11/14 01:55:52;;;;;;;;;;;;;;;4.25;81.87;98011.03;5093227;28;19932;-58
2022/11/14 01:59:04;;;;;;;;;;;;;;;4.25;81.91;98007.53;5094298;28;19974;-58
2022/11/14 02:01:52;;;;;;;;;;;;;;;4.22;81.48;98008.88;5109352;27;19927;-57
2022/11/14 02:04:41;;;;;;;;;;;;;;;4.25;81.69;98010.22;5130228;27;19934;-57
2022/11/14 02:07:28;;;;;;;;;;;;;;;4.22;81.70;98005.41;5133924;27;19930;-58
2022/11/14 02:10:39;;;;;;;;;;;;;;;4.17;81.88;98006.19;5123480;27;19946;-58
2022/11/14 02:13:27;;;;;;;;;;;;;;;4.15;81.70;98013.69;5122665;27;20312;-59
2022/11/14 02:16:13;;;;;;;;;;;;;;;4.09;81.99;98014.78;5126274;27;19946;-58
2022/11/14 02:19:00;;;;;;;;;;;;;;;4.09;82.41;98007.50;5125318;27;19933;-58
2022/11/14 02:21:48;;;;;;;;;;;;;;;4.07;82.10;98006.97;5128550;28;20068;-59
2022/11/14 02:24:59;;;;;;;;;;;;;;;4.03;81.75;98013.97;5121675;27;19935;-57
2022/11/14 02:27:47;;;;;;;;;;;;;;;4.00;82.63;98014.50;5130181;27;19931;-59
2022/11/14 02:30:34;;;;;;;;;;;;;;;3.97;82.72;98015.03;5127785;27;19991;-58
2022/11/14 02:33:21;;;;;;;;;;;;;;;4.01;82.49;98016.13;5132362;27;19946;-56
2022/11/14 02:36:08;;;;;;;;;;;;;;;3.98;82.65;97997.00;5125261;27;19997;-57
2022/11/14 02:38:56;;;;;;;;;;;;;;;3.96;82.51;97997.28;5128916;27;19961;-58
2022/11/14 02:41:42;;;;;;;;;;;;;;;3.94;82.34;97992.19;5128050;27;20011;-58
2022/11/14 02:44:30;;;;;;;;;;;;;;;3.90;82.29;97987.59;5121637;27;19931;-58
2022/11/14 02:47:17;;;;;;;;;;;;;;;3.88;82.18;97997.78;5120282;27;20022;-58
2022/11/14 02:50:05;;;;;;;;;;;;;;;3.86;82.30;97984.63;5128151;27;19985;-57
2022/11/14 02:52:52;;;;;;;;;;;;;;;3.82;82.93;97990.78;5127169;27;19930;-58
2022/11/14 02:55:43;;;;;;;;;;;;;;;3.90;82.37;97987.59;5129012;27;19930;-58
2022/11/14 02:58:29;;;;;;;;;;;;;;;3.91;82.02;97997.28;5123986;27;19984;-54
2022/11/14 03:01:16;;;;;;;;;;;;;;;3.88;81.40;98001.28;5115371;27;19934;-58
2022/11/14 03:04:07;;;;;;;;;;;;;;;3.86;81.71;98002.63;5116307;27;20359;-58
2022/11/14 03:06:53;;;;;;;;;;;;;;;3.85;81.12;98006.41;5119791;27;19930;-58
2022/11/14 03:09:40;;;;;;;;;;;;;;;3.78;81.42;98000.44;5118306;27;19949;-58
2022/11/14 03:12:29;;;;;;;;;;;;;;;3.85;81.15;98001.03;5115117;27;19930;-58
2022/11/14 03:15:15;;;;;;;;;;;;;;;3.79;80.78;98002.91;5117805;27;20081;-58
2022/11/14 03:18:03;;;;;;;;;;;;;;;3.76;80.67;97997.25;5124755;27;20295;-57
2022/11/14 03:20:49;;;;;;;;;;;;;;;3.73;80.78;97990.53;5132133;27;19934;-58
2022/11/14 03:23:36;;;;;;;;;;;;;;;3.64;81.15;97992.09;5134229;27;20014;-58
2022/11/14 03:26:23;;;;;;;;;;;;;;;3.56;81.23;97981.84;5134032;27;20473;-57
2022/11/14 03:29:11;;;;;;;;;;;;;;;3.55;80.97;97981.06;5124463;27;20303;-58
2022/11/14 03:31:57;;;;;;;;;;;;;;;3.51;81.18;97982.66;5128160;27;19930;-58
2022/11/14 03:34:43;;;;;;;;;;;;;;;3.54;81.00;97979.44;5130593;27;19946;-58
2022/11/14 03:40:41;;;;;;;;;;;;;;;3.41;81.36;97971.91;5116650;27;19931;-58
2022/11/14 03:43:30;;;;;;;;;;;;;;;3.14;82.38;97966.66;5129573;27;19938;-58
2022/11/14 03:46:18;;;;;;;;;;;;;;;3.35;81.92;97970.22;5133585;27;19930;-58
2022/11/14 03:49:05;;;;;;;;;;;;;;;3.37;81.39;97968.91;5125917;27;19946;-57
2022/11/14 03:51:54;;;;;;;;;;;;;;;3.43;81.30;97977.78;5130613;27;20011;-56
2022/11/14 03:54:41;;;;;;;;;;;;;;;3.48;81.42;97985.88;5121337;27;19928;-60
2022/11/14 03:57:28;;;;;;;;;;;;;;;3.51;81.22;97993.38;5123130;27;19930;-59
2022/11/14 04:00:16;;;;;;;;;;;;;;;3.44;81.58;97987.47;5123169;27;19931;-58
2022/11/14 04:03:04;;;;;;;;;;;;;;;3.37;81.94;97984.22;5119033;27;19935;-58
2022/11/14 04:05:51;;;;;;;;;;;;;;;3.42;81.32;97977.00;5128851;27;19931;-57
2022/11/14 04:08:40;;;;;;;;;;;;;;;3.44;81.29;97986.66;5114482;27;20331;-59
2022/11/14 04:11:27;;;;;;;;;;;;;;;3.39;81.40;97982.06;5133163;27;19931;-58
2022/11/14 04:14:14;;;;;;;;;;;;;;;3.42;81.60;97992.31;5127326;27;19930;-57
2022/11/14 04:17:01;;;;;;;;;;;;;;;3.38;81.33;97993.88;5128885;27;20019;-57
2022/11/14 04:19:52;;;;;;;;;;;;;;;3.39;81.85;97992.81;5123990;27;19928;-57
2022/11/14 04:22:38;;;;;;;;;;;;;;;3.36;82.02;97996.84;5122356;27;19984;-56
2022/11/14 04:25:49;;;;;;;;;;;;;;;3.27;82.77;97994.91;5131150;27;19924;-57
2022/11/14 04:28:35;;;;;;;;;;;;;;;3.23;82.50;98001.88;5119210;27;20008;-57
2022/11/14 04:31:22;;;;;;;;;;;;;;;3.07;83.07;97982.19;5134711;27;20450;-56
2022/11/14 04:34:09;;;;;;;;;;;;;;;3.25;82.22;97986.31;5125544;27;19930;-57
2022/11/14 04:40:15;;;;;;;;;;;;;;;3.35;81.78;97986.34;5127575;27;20072;-57
2022/11/14 04:43:02;;;;;;;;;;;;;;;3.28;81.63;97975.03;5127730;27;20529;-55
2022/11/14 04:45:49;;;;;;;;;;;;;;;3.28;81.95;97980.41;5117543;27;19930;-59
2022/11/14 04:48:36;;;;;;;;;;;;;;;3.32;82.17;97982.31;5130980;27;19934;-58
2022/11/14 04:51:23;;;;;;;;;;;;;;;3.29;81.92;97987.41;5125838;27;19930;-58
2022/11/14 04:54:11;;;;;;;;;;;;;;;3.20;82.53;97984.44;5122077;27;20430;-58
2022/11/14 04:56:58;;;;;;;;;;;;;;;3.26;82.25;97977.19;5130822;27;20034;-58
2022/11/14 04:59:45;;;;;;;;;;;;;;;3.25;82.20;97979.06;5142470;27;19930;-58
2022/11/14 05:05:45;;;;;;;;;;;;;;;3.30;81.66;97967.53;5078942;28;20078;-58
2022/11/14 05:08:36;;;;;;;;;;;;;;;3.22;81.99;97974.22;5079441;28;19947;-58
2022/11/14 05:11:24;;;;;;;;;;;;;;;3.25;82.06;97980.94;5080774;28;19931;-58
2022/11/14 05:14:14;;;;;;;;;;;;;;;3.19;82.26;97977.41;5075761;28;19931;-56
2022/11/14 05:17:01;;;;;;;;;;;;;;;3.25;82.03;97988.97;5075112;28;19967;-58
2022/11/14 05:19:48;;;;;;;;;;;;;;;3.24;82.45;97996.22;5078532;28;19955;-58
2022/11/14 05:22:35;;;;;;;;;;;;;;;3.25;82.57;97997.03;5074755;28;19931;-57
2022/11/14 05:25:46;;;;;;;;;;;;;;;3.28;82.15;97993.84;5079051;28;20702;-57
2022/11/14 05:28:34;;;;;;;;;;;;;;;3.32;82.44;98003.00;5073185;28;19939;-57
2022/11/14 05:31:21;;;;;;;;;;;;;;;3.30;82.51;97991.69;5079781;28;19990;-62
2022/11/14 05:34:07;;;;;;;;;;;;;;;3.21;83.25;97993.28;5082531;28;19935;-56
2022/11/14 05:40:28;;;;;;;;;;;;;;;3.25;83.06;97997.88;5086142;28;19977;-58
2022/11/14 05:43:15;;;;;;;;;;;;;;;3.28;82.51;97999.22;5071443;28;19931;-56
2022/11/14 05:46:06;;;;;;;;;;;;;;;3.29;82.86;98000.81;5086718;28;20017;-56
2022/11/14 05:48:53;;;;;;;;;;;;;;;3.23;82.20;98001.88;5077584;28;19940;-57
2022/11/14 05:51:40;;;;;;;;;;;;;;;3.20;82.63;98010.47;5081851;28;19997;-58
2022/11/14 05:54:27;;;;;;;;;;;;;;;3.24;82.03;98020.41;5073848;28;19932;-57
2022/11/14 05:57:14;;;;;;;;;;;;;;;3.18;82.33;98017.97;5083607;28;19931;-55
2022/11/14 06:00:01;;;;;;;;;;;;;;;3.24;82.10;98025.78;5080086;28;19935;-58
2022/11/14 06:02:49;;;;;;;;;;;;;;;3.17;82.26;98025.19;5124168;27;19930;-57
2022/11/14 06:06:00;;;;;;;;;;;;;;;3.16;81.78;98010.16;5128866;27;19930;-56
2022/11/14 06:08:48;;;;;;;;;;;;;;;3.13;81.84;97995.38;5123056;27;19931;-58
2022/11/14 06:11:34;;;;;;;;;;;;;;;3.11;81.67;97992.16;5124818;27;20123;-60
2022/11/14 06:14:45;;;;;;;;;;;;;;;3.00;82.37;97998.53;5127035;28;19992;-58
2022/11/14 06:17:32;;;;;;;;;;;;;;;3.05;82.06;98012.00;5120430;27;19957;-57
2022/11/14 06:20:20;;;;;;;;;;;;;;;2.97;82.20;98031.25;5131584;27;19938;-58
2022/11/14 06:23:06;;;;;;;;;;;;;;;3.03;82.36;98037.47;5125324;28;19937;-58
2022/11/14 06:25:58;;;;;;;;;;;;;;;2.95;82.84;98029.91;5118168;27;20025;-58
2022/11/14 06:28:44;;;;;;;;;;;;;;;3.00;82.62;98022.69;5117553;27;20444;-55
2022/11/14 06:31:30;;;;;;;;;;;;;;;2.99;82.75;98034.50;5126471;27;19934;-58
2022/11/14 06:34:17;;;;;;;;;;;;;;;2.99;82.75;98031.81;5123471;27;19930;-58
2022/11/14 06:37:07;;;;;;;;;;;;;;;3.08;82.50;98026.75;5127028;27;19930;-57
2022/11/14 06:39:58;;;;;;;;;;;;;;;3.07;82.22;98034.00;5115727;27;20295;-58
2022/11/14 06:42:45;;;;;;;;;;;;;;;3.13;82.25;98037.53;5128579;27;19958;-57
2022/11/14 06:45:57;;;;;;;;;;;;;;;2.93;83.16;98043.59;5126731;27;19930;-57
2022/11/14 06:48:44;;;;;;;;;;;;;;;2.98;82.95;98030.19;5131213;27;19923;-58
2022/11/14 06:51:31;;;;;;;;;;;;;;;3.12;82.87;98047.44;5128984;27;19930;-57
2022/11/14 06:54:26;;;;;;;;;;;;;;;3.15;82.13;98063.06;5128418;27;19930;-57
2022/11/14 06:57:13;;;;;;;;;;;;;;;2.89;82.74;98042.50;5135056;27;19930;-58
2022/11/14 07:00:00;;;;;;;;;;;;;;;3.09;82.50;98042.63;5135000;27;20404;-57
2022/11/14 07:02:47;;;;;;;;;;;;;;;2.98;82.87;98045.47;5129071;27;20004;-55
2022/11/14 07:05:58;;;;;;;;;;;;;;;3.02;83.24;98050.06;5130096;27;20386;-59
2022/11/14 07:08:46;;;;;;;;;;;;;;;3.15;82.27;98043.47;5128656;27;20398;-58
2022/11/14 07:11:36;;;;;;;;;;;;;;;3.14;82.61;98039.97;5129020;27;19935;-58
2022/11/14 07:14:23;;;;;;;;;;;;;;;3.19;82.25;98030.31;5127358;27;19924;-57
2022/11/14 07:17:09;;;;;;;;;;;;;;;3.26;81.96;98025.53;5131594;27;19930;-57
2022/11/14 07:19:57;;;;;;;;;;;;;;;3.24;81.88;98027.66;5134436;27;19923;-57
2022/11/14 07:25:53;;;;;;;;;;;;;;;3.29;81.91;98057.22;5130883;27;20291;-57
2022/11/14 07:28:42;;;;;;;;;;;;;;;3.41;82.04;98073.94;5125846;27;20023;-58
2022/11/14 07:31:30;;;;;;;;;;;;;;;3.48;81.03;98071.81;5125387;27;19930;-55
2022/11/14 07:34:18;;;;;;;;;;;;;;;3.47;81.60;98080.97;5129571;27;19930;-60
2022/11/14 07:37:08;;;;;;;;;;;;;;;3.50;81.34;98072.34;5133489;27;20065;-59
2022/11/14 07:39:59;;;;;;;;;;;;;;;3.49;81.69;98065.38;5125524;27;19938;-58
2022/11/14 07:42:46;;;;;;;;;;;;;;;3.56;81.50;98090.13;5130338;27;19930;-58
2022/11/14 07:45:34;;;;;;;;;;;;;;;3.63;81.15;98079.97;5130187;27;19935;-58
2022/11/14 07:48:45;;;;;;;;;;;;;;;3.66;81.45;98073.25;5128690;27;19930;-57
2022/11/14 07:51:32;;;;;;;;;;;;;;;3.67;81.38;98066.78;5122713;27;19934;-59
2022/11/14 07:54:19;;;;;;;;;;;;;;;3.77;80.91;98056.09;5120553;27;19927;-60
2022/11/14 07:57:06;;;;;;;;;;;;;;;3.81;81.08;98048.31;5120498;27;20355;-56
2022/11/14 07:59:53;;;;;;;;;;;;;;;3.75;81.48;98052.06;5107181;27;20382;-58
2022/11/14 08:02:42;;;;;;;;;;;;;;;3.82;81.30;98045.34;5126735;27;20000;-58
2022/11/14 08:05:31;;;;;;;;;;;;;;;3.95;81.03;98049.44;5129658;27;20308;-58
2022/11/14 08:08:24;;;;;;;;;;;;;;;4.08;81.07;98048.91;5132520;27;19924;-57
2022/11/14 08:11:48;;;;;;;;;;;;;;;4.18;80.57;98038.19;5135911;27;20294;-58
2022/11/14 08:14:35;;;;;;;;;;;;;;;4.30;80.53;98034.44;5126500;27;19934;-57
2022/11/14 08:17:27;;;;;;;;;;;;;;;4.38;80.10;98036.59;5117960;27;19976;-58
2022/11/14 08:20:16;;;;;;;;;;;;;;;4.49;80.18;98048.19;5128929;27;20485;-56
2022/11/14 08:23:03;;;;;;;;;;;;;;;4.56;79.93;98048.72;5115737;27;20081;-56
2022/11/14 08:25:55;;;;;;;;;;;;;;;4.65;79.41;98042.53;5132262;27;19938;-58
2022/11/14 08:28:42;;;;;;;;;;;;;;;4.68;79.72;98041.16;5131164;27;19950;-58
2022/11/14 08:31:29;;;;;;;;;;;;;;;4.82;79.56;98041.44;5126386;27;20050;-58
2022/11/14 08:34:16;;;;;;;;;;;;;;;4.90;78.99;98024.72;5120272;27;20049;-58
2022/11/14 08:37:10;;;;;;;;;;;;;;;5.01;78.83;98034.44;5133416;27;19931;-58
2022/11/14 08:40:21;;;;;;;;;;;;;;;5.10;78.23;98037.34;5133956;27;20339;-58
2022/11/14 08:43:10;;;;;;;;;;;;;;;5.21;78.34;98034.38;5126151;27;19923;-58
2022/11/14 08:45:58;;;;;;;;;;;;;;;5.28;78.18;98036.78;5124731;27;20006;-58
2022/11/14 08:48:47;;;;;;;;;;;;;;;5.34;78.42;98024.13;5128962;27;20019;-58
2022/11/14 08:51:34;;;;;;;;;;;;;;;5.49;78.03;98026.75;5123042;27;20001;-55
2022/11/14 08:54:23;;;;;;;;;;;;;;;5.51;78.11;98024.59;5128064;27;20022;-58
2022/11/14 08:57:10;;;;;;;;;;;;;;;5.60;77.65;98030.22;5131166;27;19930;-58
2022/11/14 08:59:57;;;;;;;;;;;;;;;5.77;77.62;98033.38;5118663;27;20082;-59
2022/11/14 09:02:45;;;;;;;;;;;;;;;5.89;77.51;98031.16;5125098;27;20391;-58
2022/11/14 09:05:56;;;;;;;;;;;;;;;6.05;77.01;98034.59;5123870;27;19943;-59
2022/11/14 09:08:45;;;;;;;;;;;;;;;6.12;77.51;98034.28;5124735;27;20822;-58
2022/11/14 09:11:33;;;;;;;;;;;;;;;6.17;76.77;98024.25;5133890;27;19934;-59
2022/11/14 09:14:20;;;;;;;;;;;;;;;6.38;76.27;98026.81;5118319;27;20394;-58
2022/11/14 09:17:07;;;;;;;;;;;;;;;6.48;75.99;98019.47;5122325;27;19923;-56
2022/11/14 09:19:54;;;;;;;;;;;;;;;6.65;75.40;98013.66;5123598;27;19933;-58
2022/11/14 09:25:57;;;;;;;;;;;;;;;6.78;74.90;98014.91;5125483;27;19992;-59
2022/11/14 09:28:46;;;;;;;;;;;;;;;6.99;73.91;98024.44;5128987;27;20281;-55
2022/11/14 09:40:40;;;;;;;;;;;;;;;7.46;72.50;98038.28;4987589;28;20076;-75
2022/11/14 09:43:33;;;;;;;;;;;;;;;7.59;71.91;98054.59;4987588;28;19937;-75
2022/11/14 09:46:22;;;;;;;;;;;;;;;7.71;72.15;98050.69;5009962;28;19950;-81
2022/11/14 09:49:09;;;;;;;;;;;;;;;7.79;71.76;98048.16;5018017;28;19932;-79
2022/11/14 09:52:02;;;;;;;;;;;;;;;7.86;71.04;98045.88;5022698;28;19933;-80
2022/11/14 09:55:02;;;;;;;;;;;;;;;7.94;70.79;98040.94;5017745;28;19917;-79
2022/11/14 09:57:51;;;;;;;;;;;;;;;8.04;70.75;98043.50;5021304;28;19944;-78
2022/11/14 10:00:39;;;;;;;;;;;;;;;7.91;71.09;98028.78;5015882;28;19933;-80
2022/11/14 10:03:30;;;;;;;;;;;;;;;8.17;70.17;98039.28;5018296;28;19933;-80
2022/11/14 10:06:22;;;;;;;;;;;;;;;8.26;69.97;98035.63;5008035;28;19944;-81
2022/11/14 10:09:25;;;;;;;;;;;;;;;8.35;69.64;98033.03;5018963;28;19914;-80
2022/11/14 10:12:18;;;;;;;;;;;;;;;8.50;69.20;98051.00;5018281;28;19946;-80
2022/11/14 10:15:13;;;;;;;;;;;;;;;8.62;69.06;98035.09;5003285;28;19994;-72
2022/11/14 10:18:25;;;;;;;;;;;;;;;8.78;68.29;98041.88;4999088;28;20453;-75
2022/11/14 10:21:17;;;;;;;;;;;;;;;8.83;67.78;98044.50;4995273;28;19933;-75
2022/11/14 10:24:06;;;;;;;;;;;;;;;8.99;67.37;98041.53;4996794;28;19932;-77
2022/11/14 10:26:55;;;;;;;;;;;;;;;9.03;67.39;98053.38;4998336;28;19976;-77
2022/11/14 10:29:57;;;;;;;;;;;;;;;9.16;67.20;98061.56;4999442;28;20115;-78
2022/11/14 10:32:53;;;;;;;;;;;;;;;9.24;66.65;98065.47;4996185;28;20308;-77
2022/11/14 10:38:54;;;;;;;;;;;;;;;9.53;66.41;98061.69;4998673;28;19933;-77
2022/11/14 10:41:41;;;;;;;;;;;;;;;9.67;65.26;98065.22;5033685;23;19944;-57
2022/11/14 10:44:43;;;;;;;;;;;;;;;9.70;64.85;98062.72;5028733;28;20390;-56
2022/11/14 10:47:33;;;;;;;;;;;;;;;9.84;64.21;98057.28;5024241;28;20027;-57
2022/11/14 10:50:19;;;;;;;;;;;;;;;9.90;63.57;98055.25;5030823;28;19945;-57
2022/11/14 10:53:07;;;;;;;;;;;;;;;9.95;63.75;98047.00;5024999;28;20298;-57
2022/11/14 10:55:55;;;;;;;;;;;;;;;9.97;63.25;98051.03;5026774;28;19936;-57
2022/11/14 10:58:50;;;;;;;;;;;;;;;10.12;63.39;98044.50;5023983;28;20010;-57
2022/11/14 11:01:37;;;;;;;;;;;;;;;10.30;62.58;98037.31;5028758;28;19947;-57
2022/11/14 11:04:27;;;;;;;;;;;;;;;10.28;62.27;98050.41;5026595;28;19932;-56
2022/11/14 11:13:32;;;;;;;;;;;;;;;10.46;61.28;98046.72;5024644;28;19931;-57
2022/11/14 11:16:20;;;;;;;;;;;;;;;10.61;60.63;98047.50;5029064;28;20022;-57
2022/11/14 11:19:22;;;;;;;;;;;;;;;10.70;60.34;98045.63;5030224;28;20309;-57
2022/11/14 11:22:23;;;;;;;;;;;;;;;10.73;60.19;98043.09;5028951;28;19932;-57
2022/11/14 11:28:34;;;;;;;;;;;;;;;10.83;60.41;98039.34;5036163;28;19928;-57
2022/11/14 11:31:22;;;;;;;;;;;;;;;10.81;60.35;98044.25;5026734;28;20019;-55
2022/11/14 11:34:08;;;;;;;;;;;;;;;10.97;60.14;98040.06;5024529;28;19932;-57
2022/11/14 11:36:57;;;;;;;;;;;;;;;11.00;59.94;98028.56;5028113;28;19939;-55
2022/11/14 11:40:16;;;;;;;;;;;;;;;11.10;59.56;98037.59;5031665;28;19940;-57
2022/11/14 11:43:05;;;;;;;;;;;;;;;11.10;59.99;98037.59;5028630;28;20398;-57
2022/11/14 11:46:15;;;;;;;;;;;;;;;11.22;59.25;98045.97;5028144;28;20169;-56
2022/11/14 11:49:06;;;;;;;;;;;;;;;11.32;59.62;98044.91;5031536;28;19950;-56
2022/11/14 11:55:05;;;;;;;;;;;;;;;11.45;58.61;98038.53;5029073;28;20627;-57
2022/11/14 11:57:57;;;;;;;;;;;;;;;11.40;58.89;98038.69;5032857;28;19959;-56
2022/11/14 12:00:43;;;;;;;;;;;;;;;11.43;59.04;98030.69;5029800;28;19990;-58
2022/11/14 12:03:30;;;;;;;;;;;;;;;11.53;58.76;98043.22;5032166;28;20337;-57
2022/11/14 12:06:23;;;;;;;;;;;;;;;11.52;58.67;98045.16;5031700;28;19929;-57
2022/11/14 12:09:37;;;;;;;;;;;;;;;11.57;58.44;98030.59;5023646;28;20132;-56
2022/11/14 12:12:58;;;;;;;;;;;;;;;11.54;58.41;98034.75;5028809;28;20412;-56
2022/11/14 12:15:47;;;;;;;;;;;;;;;11.62;58.60;98035.09;5027052;28;19932;-57
2022/11/14 12:18:37;;;;;;;;;;;;;;;11.68;58.71;98036.56;5028132;28;19940;-61
2022/11/14 12:21:28;;;;;;;;;;;;;;;11.70;58.86;98034.31;5030344;28;19932;-57
2022/11/14 12:24:22;;;;;;;;;;;;;;;11.62;59.31;98038.63;5027491;28;20063;-56
2022/11/14 12:27:24;;;;;;;;;;;;;;;11.55;59.57;98039.06;5031547;28;19939;-57
2022/11/14 12:30:12;;;;;;;;;;;;;;;11.58;59.31;98025.97;5031430;28;20015;-56
2022/11/14 12:32:59;;;;;;;;;;;;;;;11.61;59.41;98030.75;5026809;28;19939;-57
2022/11/14 12:35:49;;;;;;;;;;;;;;;11.63;59.63;98023.09;5029561;28;19948;-57
2022/11/14 12:38:45;;;;;;;;;;;;;;;11.51;60.57;98029.16;5026567;28;20011;-58
2022/11/14 12:41:33;;;;;;;;;;;;;;;11.69;61.46;98038.16;5026407;28;20294;-57
2022/11/14 12:44:31;;;;;;;;;;;;;;;11.60;60.32;98027.25;5029271;28;20062;-54
2022/11/14 12:47:18;;;;;;;;;;;;;;;11.61;60.37;98033.47;5027050;28;20333;-57
2022/11/14 12:50:20;;;;;;;;;;;;;;;11.59;60.38;98031.09;5020406;28;19932;-57
2022/11/14 12:53:34;;;;;;;;;;;;;;;11.63;60.81;98025.81;5037076;28;19932;-57
2022/11/14 12:57:09;;;;;;;;;;;;;;;11.60;60.92;98031.88;5029054;28;19979;-57
2022/11/14 13:00:01;;;;;;;;;;;;;;;11.64;60.67;98030.94;5031213;28;19937;-57
2022/11/14 13:02:50;;;;;;;;;;;;;;;11.64;60.76;98030.16;5023514;28;20508;-57
2022/11/14 13:05:40;;;;;;;;;;;;;;;11.55;61.48;98024.66;5025492;28;19944;-57
2022/11/14 13:08:43;;;;;;;;;;;;;;;11.46;61.29;98019.22;5031335;28;20014;-57
2022/11/14 13:21:44;;;;;;;;;;;;;;;11.45;61.53;98022.22;5019706;28;19932;-57
2022/11/14 13:25:10;;;;;;;;;;;;;;;11.62;61.14;98010.63;5026117;28;19933;-58
2022/11/14 13:27:59;;;;;;;;;;;;;;;11.67;60.88;98005.84;5021906;28;20393;-57
2022/11/14 13:31:06;;;;;;;;;;;;;;;11.62;61.43;97999.72;5030446;28;19998;-58
2022/11/14 13:33:57;;;;;;;;;;;;;;;11.63;61.05;97995.88;5022136;28;19933;-59
2022/11/14 13:36:45;;;;;;;;;;;;;;;11.70;60.44;97988.84;5028332;28;19940;-58
2022/11/14 13:39:33;;;;;;;;;;;;;;;11.65;60.20;97978.13;5029076;28;20501;-57
2022/11/14 13:42:27;;;;;;;;;;;;;;;11.59;60.92;97981.31;5029819;28;19940;-57
2022/11/14 13:45:37;;;;;;;;;;;;;;;11.57;60.67;97976.19;5026323;28;20788;-57
2022/11/14 13:48:41;;;;;;;;;;;;;;;11.59;60.94;97984.03;5023118;28;20153;-58
2022/11/14 13:51:34;;;;;;;;;;;;;;;11.61;60.87;97976.34;5028987;28;20289;-58
2022/11/14 13:54:29;;;;;;;;;;;;;;;11.54;61.05;97980.31;5026051;28;20011;-57
2022/11/14 14:00:30;;;;;;;;;;;;;;;11.61;60.89;97976.34;5025839;28;19947;-60
2022/11/14 14:03:20;;;;;;;;;;;;;;;11.63;60.26;97969.47;5022361;28;19926;-57
2022/11/14 14:06:34;;;;;;;;;;;;;;;11.64;61.04;97964.84;5027411;28;20340;-58
2022/11/14 14:09:47;;;;;;;;;;;;;;;11.55;61.35;97962.06;5026896;28;19980;-57
2022/11/14 14:12:39;;;;;;;;;;;;;;;11.55;60.54;97960.16;5027657;28;19940;-58
2022/11/14 14:15:27;;;;;;;;;;;;;;;11.55;61.04;97964.78;5030298;28;19936;-57
2022/11/14 14:18:18;;;;;;;;;;;;;;;11.52;61.07;97960.00;5035080;28;20502;-58
2022/11/14 14:21:06;;;;;;;;;;;;;;;11.52;60.86;97963.53;5025426;28;19933;-58
2022/11/14 14:23:56;;;;;;;;;;;;;;;11.48;61.19;97957.09;5025363;28;19940;-56
2022/11/14 14:26:54;;;;;;;;;;;;;;;11.52;60.73;97947.19;5021643;28;20298;-57
2022/11/14 14:29:42;;;;;;;;;;;;;;;11.48;60.87;97951.66;5034799;28;20044;-56
2022/11/14 14:32:36;;;;;;;;;;;;;;;11.44;61.00;97947.16;5027913;28;19929;-54
2022/11/14 14:35:24;;;;;;;;;;;;;;;11.36;61.13;97948.75;5016162;28;19949;-57
2022/11/14 14:38:12;;;;;;;;;;;;;;;11.23;61.62;97955.09;5023049;28;19932;-56
2022/11/14 14:41:02;;;;;;;;;;;;;;;11.12;61.88;97951.06;5020550;28;19936;-55
2022/11/14 14:43:50;;;;;;;;;;;;;;;10.99;62.43;97948.13;5021678;28;20023;-56
2022/11/14 14:46:37;;;;;;;;;;;;;;;10.90;62.94;97947.28;5021012;28;19975;-56
2022/11/14 14:49:25;;;;;;;;;;;;;;;10.78;63.67;97947.06;5023105;28;19933;-56
2022/11/14 14:52:21;;;;;;;;;;;;;;;10.69;63.91;97935.34;5024286;28;19932;-59
2022/11/14 14:55:16;;;;;;;;;;;;;;;10.61;64.09;97934.19;5025332;28;19941;-56
2022/11/14 14:58:15;;;;;;;;;;;;;;;10.53;64.86;97931.41;5026621;28;20429;-56
2022/11/14 15:01:09;;;;;;;;;;;;;;;10.49;64.87;97931.22;5025134;28;19948;-56
2022/11/14 15:03:57;;;;;;;;;;;;;;;10.44;65.30;97924.03;5022002;28;20397;-60
2022/11/14 15:06:44;;;;;;;;;;;;;;;10.49;65.88;97928.50;5022052;28;20059;-58
2022/11/14 15:09:31;;;;;;;;;;;;;;;10.54;65.42;97922.13;5017111;28;19932;-55
2022/11/14 15:12:19;;;;;;;;;;;;;;;10.46;65.72;97923.69;5031431;28;19953;-56
2022/11/14 15:15:09;;;;;;;;;;;;;;;10.42;65.73;97923.50;5015452;28;20087;-57
2022/11/14 15:17:57;;;;;;;;;;;;;;;10.39;66.50;97916.00;5032450;28;19952;-58
2022/11/14 15:20:45;;;;;;;;;;;;;;;10.44;66.29;97923.22;5022984;28;20003;-59
2022/11/14 15:23:32;;;;;;;;;;;;;;;10.48;65.73;97919.53;5021658;28;19931;-57
2022/11/14 15:26:20;;;;;;;;;;;;;;;10.47;65.97;97920.66;5023024;28;19967;-55
2022/11/14 15:29:07;;;;;;;;;;;;;;;10.44;66.07;97915.06;5025924;28;20306;-58
2022/11/14 15:31:56;;;;;;;;;;;;;;;10.47;65.62;97926.09;5020157;28;19933;-58
2022/11/14 15:35:08;;;;;;;;;;;;;;;10.48;65.20;97919.53;5013989;28;19932;-58
2022/11/14 15:38:02;;;;;;;;;;;;;;;10.41;65.72;97921.91;5031136;28;20078;-58
2022/11/14 15:41:20;;;;;;;;;;;;;;;10.34;65.86;97924.28;5027768;28;19932;-58
2022/11/14 15:44:14;;;;;;;;;;;;;;;10.32;65.62;97923.75;5025080;28;19956;-57
2022/11/14 15:47:05;;;;;;;;;;;;;;;10.24;66.31;97924.50;5025852;28;19932;-57
2022/11/14 15:49:52;;;;;;;;;;;;;;;10.16;66.30;97931.44;5022761;28;20027;-57
2022/11/14 15:52:40;;;;;;;;;;;;;;;10.11;66.54;97919.91;5029936;28;19947;-58
2022/11/14 15:55:27;;;;;;;;;;;;;;;10.04;66.68;97930.38;5030758;28;19952;-58
2022/11/14 15:58:14;;;;;;;;;;;;;;;9.95;67.26;97925.69;5015040;28;19932;-58
2022/11/14 16:01:20;;;;;;;;;;;;;;;9.94;67.50;97926.78;5016475;28;19933;-58
2022/11/14 16:04:09;;;;;;;;;;;;;;;9.84;68.13;97918.88;5015849;28;19932;-57